sensor_id;sensor_type;location;lat;lon;timestamp;temperature;humidity
42755;DHT22;28407;51.830;5.684;2023-01-30T00:00:14;6.00;86.10
42755;DHT22;28407;51.830;5.684;2023-01-30T00:02:14;6.00;86.10
42755;DHT22;28407;51.830;5.684;2023-01-30T00:04:15;6.00;86.10
42755;DHT22;28407;51.830;5.684;2023-01-30T00:06:16;6.00;86.10
42755;DHT22;28407;51.830;5.684;2023-01-30T00:08:17;6.00;86.10
42755;DHT22;28407;51.830;5.684;2023-01-30T00:10:17;6.00;86.20
42755;DHT22;28407;51.830;5.684;2023-01-30T00:12:18;6.00;86.20
42755;DHT22;28407;51.830;5.684;2023-01-30T00:14:19;6.00;86.20
42755;DHT22;28407;51.830;5.684;2023-01-30T00:16:19;6.00;86.30
42755;DHT22;28407;51.830;5.684;2023-01-30T00:18:20;6.10;86.30
42755;DHT22;28407;51.830;5.684;2023-01-30T00:20:20;6.10;86.40
42755;DHT22;28407;51.830;5.684;2023-01-30T00:22:21;6.10;86.40
42755;DHT22;28407;51.830;5.684;2023-01-30T00:24:22;6.10;86.50
42755;DHT22;28407;51.830;5.684;2023-01-30T00:26:22;6.10;86.50
42755;DHT22;28407;51.830;5.684;2023-01-30T00:28:23;6.10;86.50
42755;DHT22;28407;51.830;5.684;2023-01-30T00:30:24;6.10;86.60
42755;DHT22;28407;51.830;5.684;2023-01-30T00:32:24;6.10;86.60
42755;DHT22;28407;51.830;5.684;2023-01-30T00:34:27;6.10;86.60
42755;DHT22;28407;51.830;5.684;2023-01-30T00:36:27;6.10;86.60
42755;DHT22;28407;51.830;5.684;2023-01-30T00:38:28;6.10;86.70
42755;DHT22;28407;51.830;5.684;2023-01-30T00:40:28;6.10;86.70
42755;DHT22;28407;51.830;5.684;2023-01-30T00:42:29;6.20;86.70
42755;DHT22;28407;51.830;5.684;2023-01-30T00:44:48;6.20;86.70
42755;DHT22;28407;51.830;5.684;2023-01-30T00:47:07;6.20;86.80
42755;DHT22;28407;51.830;5.684;2023-01-30T00:49:08;6.20;86.80
42755;DHT22;28407;51.830;5.684;2023-01-30T00:51:09;6.20;87.00
42755;DHT22;28407;51.830;5.684;2023-01-30T00:53:11;6.20;87.00
42755;DHT22;28407;51.830;5.684;2023-01-30T00:55:12;6.20;87.00
42755;DHT22;28407;51.830;5.684;2023-01-30T00:57:14;6.20;87.00
42755;DHT22;28407;51.830;5.684;2023-01-30T00:59:15;6.20;87.00
42755;DHT22;28407;51.830;5.684;2023-01-30T01:01:15;6.20;86.90
42755;DHT22;28407;51.830;5.684;2023-01-30T01:03:17;6.20;86.90
42755;DHT22;28407;51.830;5.684;2023-01-30T01:05:18;6.20;87.00
42755;DHT22;28407;51.830;5.684;2023-01-30T01:07:18;6.20;87.00
42755;DHT22;28407;51.830;5.684;2023-01-30T01:09:19;6.30;87.10
42755;DHT22;28407;51.830;5.684;2023-01-30T01:11:19;6.30;87.10
42755;DHT22;28407;51.830;5.684;2023-01-30T01:13:26;6.30;87.20
42755;DHT22;28407;51.830;5.684;2023-01-30T01:15:27;6.30;87.20
42755;DHT22;28407;51.830;5.684;2023-01-30T01:17:27;6.30;87.30
42755;DHT22;28407;51.830;5.684;2023-01-30T01:19:28;6.30;87.30
42755;DHT22;28407;51.830;5.684;2023-01-30T01:21:29;6.30;87.30
42755;DHT22;28407;51.830;5.684;2023-01-30T01:23:29;6.30;87.30
42755;DHT22;28407;51.830;5.684;2023-01-30T01:25:30;6.40;87.40
42755;DHT22;28407;51.830;5.684;2023-01-30T01:27:31;6.40;87.50
42755;DHT22;28407;51.830;5.684;2023-01-30T01:29:32;6.40;87.50
42755;DHT22;28407;51.830;5.684;2023-01-30T01:31:32;6.40;87.60
42755;DHT22;28407;51.830;5.684;2023-01-30T01:33:33;6.40;87.60
42755;DHT22;28407;51.830;5.684;2023-01-30T01:35:33;6.40;87.60
42755;DHT22;28407;51.830;5.684;2023-01-30T01:37:34;6.40;87.60
42755;DHT22;28407;51.830;5.684;2023-01-30T01:39:35;6.40;87.80
42755;DHT22;28407;51.830;5.684;2023-01-30T01:41:54;6.40;87.70
42755;DHT22;28407;51.830;5.684;2023-01-30T01:44:06;6.40;87.70
42755;DHT22;28407;51.830;5.684;2023-01-30T01:46:21;6.40;87.80
42755;DHT22;28407;51.830;5.684;2023-01-30T01:48:28;6.40;87.80
42755;DHT22;28407;51.830;5.684;2023-01-30T01:50:45;6.40;87.80
42755;DHT22;28407;51.830;5.684;2023-01-30T01:52:48;6.40;87.80
42755;DHT22;28407;51.830;5.684;2023-01-30T01:54:54;6.50;87.90
42755;DHT22;28407;51.830;5.684;2023-01-30T01:56:56;6.40;87.90
42755;DHT22;28407;51.830;5.684;2023-01-30T01:59:25;6.40;88.00
42755;DHT22;28407;51.830;5.684;2023-01-30T02:01:27;6.40;88.00
42755;DHT22;28407;51.830;5.684;2023-01-30T02:03:34;6.50;88.00
42755;DHT22;28407;51.830;5.684;2023-01-30T02:05:40;6.50;88.10
42755;DHT22;28407;51.830;5.684;2023-01-30T02:07:46;6.50;88.20
42755;DHT22;28407;51.830;5.684;2023-01-30T02:09:49;6.50;88.30
42755;DHT22;28407;51.830;5.684;2023-01-30T02:11:55;6.50;88.30
42755;DHT22;28407;51.830;5.684;2023-01-30T02:13:57;6.50;88.40
42755;DHT22;28407;51.830;5.684;2023-01-30T02:16:01;6.50;88.40
42755;DHT22;28407;51.830;5.684;2023-01-30T02:18:02;6.50;88.50
42755;DHT22;28407;51.830;5.684;2023-01-30T02:23:02;6.50;88.60
42755;DHT22;28407;51.830;5.684;2023-01-30T02:25:34;6.50;88.60
42755;DHT22;28407;51.830;5.684;2023-01-30T02:32:40;6.60;88.50
42755;DHT22;28407;51.830;5.684;2023-01-30T02:34:58;6.50;88.40
42755;DHT22;28407;51.830;5.684;2023-01-30T02:37:19;6.50;88.40
42755;DHT22;28407;51.830;5.684;2023-01-30T02:39:37;6.60;88.50
42755;DHT22;28407;51.830;5.684;2023-01-30T02:41:51;6.60;88.50
42755;DHT22;28407;51.830;5.684;2023-01-30T02:44:04;6.60;88.60
42755;DHT22;28407;51.830;5.684;2023-01-30T02:46:14;6.60;88.70
42755;DHT22;28407;51.830;5.684;2023-01-30T02:48:46;6.60;88.70
42755;DHT22;28407;51.830;5.684;2023-01-30T02:50:54;6.60;88.80
42755;DHT22;28407;51.830;5.684;2023-01-30T02:52:57;6.60;88.70
42755;DHT22;28407;51.830;5.684;2023-01-30T02:54:57;6.70;88.80
42755;DHT22;28407;51.830;5.684;2023-01-30T02:56:59;6.70;88.90
42755;DHT22;28407;51.830;5.684;2023-01-30T02:59:03;6.70;88.90
42755;DHT22;28407;51.830;5.684;2023-01-30T03:06:24;6.80;89.10
42755;DHT22;28407;51.830;5.684;2023-01-30T03:08:49;6.80;89.20
42755;DHT22;28407;51.830;5.684;2023-01-30T03:11:02;6.80;89.10
42755;DHT22;28407;51.830;5.684;2023-01-30T03:13:33;6.90;89.20
42755;DHT22;28407;51.830;5.684;2023-01-30T03:15:53;6.90;89.20
42755;DHT22;28407;51.830;5.684;2023-01-30T03:17:54;6.90;89.20
42755;DHT22;28407;51.830;5.684;2023-01-30T03:19:55;6.90;89.20
42755;DHT22;28407;51.830;5.684;2023-01-30T03:21:56;6.90;89.30
42755;DHT22;28407;51.830;5.684;2023-01-30T03:23:58;6.90;89.40
42755;DHT22;28407;51.830;5.684;2023-01-30T03:25:59;7.00;89.50
42755;DHT22;28407;51.830;5.684;2023-01-30T03:28:02;7.00;89.60
42755;DHT22;28407;51.830;5.684;2023-01-30T03:30:03;7.00;89.60
42755;DHT22;28407;51.830;5.684;2023-01-30T03:32:04;7.00;89.70
42755;DHT22;28407;51.830;5.684;2023-01-30T03:34:05;7.00;89.80
42755;DHT22;28407;51.830;5.684;2023-01-30T03:36:06;7.00;89.80
42755;DHT22;28407;51.830;5.684;2023-01-30T03:38:08;7.00;89.90
42755;DHT22;28407;51.830;5.684;2023-01-30T03:40:11;7.00;89.90
42755;DHT22;28407;51.830;5.684;2023-01-30T03:42:13;7.00;89.80
42755;DHT22;28407;51.830;5.684;2023-01-30T03:44:13;7.00;90.20
42755;DHT22;28407;51.830;5.684;2023-01-30T03:46:17;7.00;89.90
42755;DHT22;28407;51.830;5.684;2023-01-30T03:48:17;7.00;90.30
42755;DHT22;28407;51.830;5.684;2023-01-30T03:50:18;7.00;90.00
42755;DHT22;28407;51.830;5.684;2023-01-30T03:52:19;7.00;90.00
42755;DHT22;28407;51.830;5.684;2023-01-30T03:54:20;7.00;90.10
42755;DHT22;28407;51.830;5.684;2023-01-30T03:56:21;7.00;90.10
42755;DHT22;28407;51.830;5.684;2023-01-30T03:58:22;7.00;90.10
42755;DHT22;28407;51.830;5.684;2023-01-30T04:00:24;7.10;90.10
42755;DHT22;28407;51.830;5.684;2023-01-30T04:02:25;7.10;90.10
42755;DHT22;28407;51.830;5.684;2023-01-30T04:04:27;7.10;90.10
42755;DHT22;28407;51.830;5.684;2023-01-30T04:06:29;7.10;90.20
42755;DHT22;28407;51.830;5.684;2023-01-30T04:08:30;7.10;90.20
42755;DHT22;28407;51.830;5.684;2023-01-30T04:10:32;7.10;90.20
42755;DHT22;28407;51.830;5.684;2023-01-30T04:12:32;7.10;90.20
42755;DHT22;28407;51.830;5.684;2023-01-30T04:14:34;7.10;90.30
42755;DHT22;28407;51.830;5.684;2023-01-30T04:16:47;7.10;90.30
42755;DHT22;28407;51.830;5.684;2023-01-30T04:19:15;7.10;90.30
42755;DHT22;28407;51.830;5.684;2023-01-30T04:21:15;7.10;90.30
42755;DHT22;28407;51.830;5.684;2023-01-30T04:23:16;7.10;90.30
42755;DHT22;28407;51.830;5.684;2023-01-30T04:25:17;7.20;90.40
42755;DHT22;28407;51.830;5.684;2023-01-30T04:27:18;7.20;90.40
42755;DHT22;28407;51.830;5.684;2023-01-30T04:29:37;7.20;90.40
42755;DHT22;28407;51.830;5.684;2023-01-30T04:31:41;7.20;90.40
42755;DHT22;28407;51.830;5.684;2023-01-30T04:33:53;7.20;90.50
42755;DHT22;28407;51.830;5.684;2023-01-30T04:35:58;7.20;90.50
42755;DHT22;28407;51.830;5.684;2023-01-30T04:37:59;7.20;90.50
42755;DHT22;28407;51.830;5.684;2023-01-30T04:40:00;7.20;90.50
42755;DHT22;28407;51.830;5.684;2023-01-30T04:42:01;7.20;90.50
42755;DHT22;28407;51.830;5.684;2023-01-30T04:44:06;7.20;90.50
42755;DHT22;28407;51.830;5.684;2023-01-30T04:46:33;7.30;90.60
42755;DHT22;28407;51.830;5.684;2023-01-30T04:48:33;7.30;90.60
42755;DHT22;28407;51.830;5.684;2023-01-30T04:50:35;7.30;90.60
42755;DHT22;28407;51.830;5.684;2023-01-30T04:52:37;7.30;90.60
42755;DHT22;28407;51.830;5.684;2023-01-30T04:54:38;7.30;90.50
42755;DHT22;28407;51.830;5.684;2023-01-30T04:56:39;7.30;90.60
42755;DHT22;28407;51.830;5.684;2023-01-30T04:58:40;7.30;90.60
42755;DHT22;28407;51.830;5.684;2023-01-30T05:00:41;7.30;90.60
42755;DHT22;28407;51.830;5.684;2023-01-30T05:02:42;7.30;90.90
42755;DHT22;28407;51.830;5.684;2023-01-30T05:04:43;7.30;90.60
42755;DHT22;28407;51.830;5.684;2023-01-30T05:06:43;7.30;90.60
42755;DHT22;28407;51.830;5.684;2023-01-30T05:08:50;7.30;90.60
42755;DHT22;28407;51.830;5.684;2023-01-30T05:10:51;7.30;90.60
42755;DHT22;28407;51.830;5.684;2023-01-30T05:12:51;7.30;90.60
42755;DHT22;28407;51.830;5.684;2023-01-30T05:14:52;7.30;90.60
42755;DHT22;28407;51.830;5.684;2023-01-30T05:16:53;7.40;90.70
42755;DHT22;28407;51.830;5.684;2023-01-30T05:18:53;7.40;90.70
42755;DHT22;28407;51.830;5.684;2023-01-30T05:21:02;7.40;90.70
42755;DHT22;28407;51.830;5.684;2023-01-30T05:23:03;7.40;90.70
42755;DHT22;28407;51.830;5.684;2023-01-30T05:25:04;7.40;90.70
42755;DHT22;28407;51.830;5.684;2023-01-30T05:27:05;7.40;90.70
42755;DHT22;28407;51.830;5.684;2023-01-30T05:29:05;7.40;90.70
42755;DHT22;28407;51.830;5.684;2023-01-30T05:31:09;7.40;90.70
42755;DHT22;28407;51.830;5.684;2023-01-30T05:33:10;7.40;90.70
42755;DHT22;28407;51.830;5.684;2023-01-30T05:35:10;7.40;90.70
42755;DHT22;28407;51.830;5.684;2023-01-30T05:37:11;7.40;90.70
42755;DHT22;28407;51.830;5.684;2023-01-30T05:39:12;7.40;90.70
42755;DHT22;28407;51.830;5.684;2023-01-30T05:41:14;7.40;90.70
42755;DHT22;28407;51.830;5.684;2023-01-30T05:43:15;7.40;90.70
42755;DHT22;28407;51.830;5.684;2023-01-30T05:45:15;7.50;90.70
42755;DHT22;28407;51.830;5.684;2023-01-30T05:47:16;7.50;90.70
42755;DHT22;28407;51.830;5.684;2023-01-30T05:49:17;7.40;90.70
42755;DHT22;28407;51.830;5.684;2023-01-30T05:51:20;7.50;90.70
42755;DHT22;28407;51.830;5.684;2023-01-30T05:53:23;7.50;90.70
42755;DHT22;28407;51.830;5.684;2023-01-30T05:55:24;7.40;90.70
42755;DHT22;28407;51.830;5.684;2023-01-30T05:57:24;7.50;90.70
42755;DHT22;28407;51.830;5.684;2023-01-30T05:59:25;7.50;90.60
42755;DHT22;28407;51.830;5.684;2023-01-30T06:01:26;7.40;90.60
42755;DHT22;28407;51.830;5.684;2023-01-30T06:03:27;7.50;90.70
42755;DHT22;28407;51.830;5.684;2023-01-30T06:05:27;7.50;90.70
42755;DHT22;28407;51.830;5.684;2023-01-30T06:07:28;7.50;90.70
42755;DHT22;28407;51.830;5.684;2023-01-30T06:09:29;7.40;90.60
42755;DHT22;28407;51.830;5.684;2023-01-30T06:11:29;7.50;90.70
42755;DHT22;28407;51.830;5.684;2023-01-30T06:13:30;7.50;90.60
42755;DHT22;28407;51.830;5.684;2023-01-30T06:15:31;7.50;90.60
42755;DHT22;28407;51.830;5.684;2023-01-30T06:17:32;7.50;90.50
42755;DHT22;28407;51.830;5.684;2023-01-30T06:19:33;7.50;90.50
42755;DHT22;28407;51.830;5.684;2023-01-30T06:21:33;7.50;90.50
42755;DHT22;28407;51.830;5.684;2023-01-30T06:23:34;7.50;90.50
42755;DHT22;28407;51.830;5.684;2023-01-30T06:25:35;7.50;90.40
42755;DHT22;28407;51.830;5.684;2023-01-30T06:27:35;7.50;90.40
42755;DHT22;28407;51.830;5.684;2023-01-30T06:29:36;7.50;90.40
42755;DHT22;28407;51.830;5.684;2023-01-30T06:31:36;7.50;90.40
42755;DHT22;28407;51.830;5.684;2023-01-30T06:33:37;7.40;90.30
42755;DHT22;28407;51.830;5.684;2023-01-30T06:35:38;7.40;90.30
42755;DHT22;28407;51.830;5.684;2023-01-30T06:37:39;7.40;90.30
42755;DHT22;28407;51.830;5.684;2023-01-30T06:39:40;7.40;90.30
42755;DHT22;28407;51.830;5.684;2023-01-30T06:41:40;7.40;90.20
42755;DHT22;28407;51.830;5.684;2023-01-30T06:43:41;7.40;90.20
42755;DHT22;28407;51.830;5.684;2023-01-30T06:45:42;7.40;90.20
42755;DHT22;28407;51.830;5.684;2023-01-30T06:47:53;7.30;90.20
42755;DHT22;28407;51.830;5.684;2023-01-30T06:49:54;7.40;90.20
42755;DHT22;28407;51.830;5.684;2023-01-30T06:51:55;7.30;90.10
42755;DHT22;28407;51.830;5.684;2023-01-30T06:53:55;7.30;90.10
42755;DHT22;28407;51.830;5.684;2023-01-30T06:56:00;7.30;90.10
42755;DHT22;28407;51.830;5.684;2023-01-30T06:58:03;7.20;90.10
42755;DHT22;28407;51.830;5.684;2023-01-30T07:00:06;7.20;90.10
42755;DHT22;28407;51.830;5.684;2023-01-30T07:02:09;7.20;90.10
42755;DHT22;28407;51.830;5.684;2023-01-30T07:04:12;7.20;90.10
42755;DHT22;28407;51.830;5.684;2023-01-30T07:06:12;7.20;90.10
42755;DHT22;28407;51.830;5.684;2023-01-30T07:08:14;7.10;90.00
42755;DHT22;28407;51.830;5.684;2023-01-30T07:10:15;7.10;90.00
42755;DHT22;28407;51.830;5.684;2023-01-30T07:12:16;7.10;90.00
42755;DHT22;28407;51.830;5.684;2023-01-30T07:14:16;7.10;90.00
42755;DHT22;28407;51.830;5.684;2023-01-30T07:16:17;7.10;90.00
42755;DHT22;28407;51.830;5.684;2023-01-30T07:18:17;7.00;90.00
42755;DHT22;28407;51.830;5.684;2023-01-30T07:20:18;7.00;90.00
42755;DHT22;28407;51.830;5.684;2023-01-30T07:22:19;7.00;90.00
42755;DHT22;28407;51.830;5.684;2023-01-30T07:24:19;7.00;90.00
42755;DHT22;28407;51.830;5.684;2023-01-30T07:26:20;7.00;90.00
42755;DHT22;28407;51.830;5.684;2023-01-30T07:28:21;7.00;90.00
42755;DHT22;28407;51.830;5.684;2023-01-30T07:30:22;6.90;90.00
42755;DHT22;28407;51.830;5.684;2023-01-30T07:32:23;6.90;90.00
42755;DHT22;28407;51.830;5.684;2023-01-30T07:34:23;6.90;90.00
42755;DHT22;28407;51.830;5.684;2023-01-30T07:36:24;6.90;90.00
42755;DHT22;28407;51.830;5.684;2023-01-30T07:38:24;6.90;90.00
42755;DHT22;28407;51.830;5.684;2023-01-30T07:40:25;6.90;90.00
42755;DHT22;28407;51.830;5.684;2023-01-30T07:42:26;6.90;90.00
42755;DHT22;28407;51.830;5.684;2023-01-30T07:44:27;6.90;90.00
42755;DHT22;28407;51.830;5.684;2023-01-30T07:46:27;6.80;90.00
42755;DHT22;28407;51.830;5.684;2023-01-30T07:48:34;6.80;89.90
42755;DHT22;28407;51.830;5.684;2023-01-30T07:50:35;6.80;89.90
42755;DHT22;28407;51.830;5.684;2023-01-30T07:52:35;6.80;89.90
42755;DHT22;28407;51.830;5.684;2023-01-30T07:54:36;6.80;89.90
42755;DHT22;28407;51.830;5.684;2023-01-30T07:56:36;6.80;89.80
42755;DHT22;28407;51.830;5.684;2023-01-30T07:58:37;6.80;89.80
42755;DHT22;28407;51.830;5.684;2023-01-30T08:00:37;6.80;89.80
42755;DHT22;28407;51.830;5.684;2023-01-30T08:02:38;6.80;89.60
42755;DHT22;28407;51.830;5.684;2023-01-30T08:04:39;6.80;89.60
42755;DHT22;28407;51.830;5.684;2023-01-30T08:06:39;6.80;89.50
42755;DHT22;28407;51.830;5.684;2023-01-30T08:08:40;6.80;89.50
42755;DHT22;28407;51.830;5.684;2023-01-30T08:10:41;6.80;89.40
42755;DHT22;28407;51.830;5.684;2023-01-30T08:12:42;6.80;89.30
42755;DHT22;28407;51.830;5.684;2023-01-30T08:14:42;6.80;89.30
42755;DHT22;28407;51.830;5.684;2023-01-30T08:16:43;6.80;89.20
42755;DHT22;28407;51.830;5.684;2023-01-30T08:18:43;6.80;89.20
42755;DHT22;28407;51.830;5.684;2023-01-30T08:20:44;6.80;89.10
42755;DHT22;28407;51.830;5.684;2023-01-30T08:22:45;6.80;89.00
42755;DHT22;28407;51.830;5.684;2023-01-30T08:24:45;6.80;88.90
42755;DHT22;28407;51.830;5.684;2023-01-30T08:26:49;6.80;88.90
42755;DHT22;28407;51.830;5.684;2023-01-30T08:28:49;6.80;88.80
42755;DHT22;28407;51.830;5.684;2023-01-30T08:30:50;6.80;88.70
42755;DHT22;28407;51.830;5.684;2023-01-30T08:32:54;6.80;88.60
42755;DHT22;28407;51.830;5.684;2023-01-30T08:34:55;6.80;88.50
42755;DHT22;28407;51.830;5.684;2023-01-30T08:36:55;6.80;88.50
42755;DHT22;28407;51.830;5.684;2023-01-30T08:38:56;6.80;88.40
42755;DHT22;28407;51.830;5.684;2023-01-30T08:40:56;6.80;88.40
42755;DHT22;28407;51.830;5.684;2023-01-30T08:42:57;6.80;88.20
42755;DHT22;28407;51.830;5.684;2023-01-30T08:44:58;6.80;88.20
42755;DHT22;28407;51.830;5.684;2023-01-30T08:46:58;6.90;88.20
42755;DHT22;28407;51.830;5.684;2023-01-30T08:48:59;6.90;88.10
42755;DHT22;28407;51.830;5.684;2023-01-30T08:50:59;6.90;88.00
42755;DHT22;28407;51.830;5.684;2023-01-30T08:53:04;6.90;88.10
42755;DHT22;28407;51.830;5.684;2023-01-30T08:55:06;6.90;88.10
42755;DHT22;28407;51.830;5.684;2023-01-30T08:57:06;6.90;87.70
42755;DHT22;28407;51.830;5.684;2023-01-30T08:59:07;6.90;87.60
42755;DHT22;28407;51.830;5.684;2023-01-30T09:01:07;6.90;87.60
42755;DHT22;28407;51.830;5.684;2023-01-30T09:03:08;7.00;87.50
42755;DHT22;28407;51.830;5.684;2023-01-30T09:05:09;6.90;87.70
42755;DHT22;28407;51.830;5.684;2023-01-30T09:07:10;7.00;87.30
42755;DHT22;28407;51.830;5.684;2023-01-30T09:09:11;7.00;87.20
42755;DHT22;28407;51.830;5.684;2023-01-30T09:11:11;7.00;87.20
42755;DHT22;28407;51.830;5.684;2023-01-30T09:13:12;7.00;87.00
42755;DHT22;28407;51.830;5.684;2023-01-30T09:15:13;7.10;86.90
42755;DHT22;28407;51.830;5.684;2023-01-30T09:17:13;7.10;86.80
42755;DHT22;28407;51.830;5.684;2023-01-30T09:19:14;7.10;86.70
42755;DHT22;28407;51.830;5.684;2023-01-30T09:21:15;7.20;86.70
42755;DHT22;28407;51.830;5.684;2023-01-30T09:23:16;7.20;86.50
42755;DHT22;28407;51.830;5.684;2023-01-30T09:25:17;7.20;86.50
42755;DHT22;28407;51.830;5.684;2023-01-30T09:27:17;7.20;86.30
42755;DHT22;28407;51.830;5.684;2023-01-30T09:29:18;7.30;86.30
42755;DHT22;28407;51.830;5.684;2023-01-30T09:31:19;7.30;86.20
42755;DHT22;28407;51.830;5.684;2023-01-30T09:33:19;7.30;86.10
42755;DHT22;28407;51.830;5.684;2023-01-30T09:35:20;7.30;86.10
42755;DHT22;28407;51.830;5.684;2023-01-30T09:37:21;7.30;86.00
42755;DHT22;28407;51.830;5.684;2023-01-30T09:39:21;7.40;86.00
42755;DHT22;28407;51.830;5.684;2023-01-30T09:44:43;7.40;85.90
42755;DHT22;28407;51.830;5.684;2023-01-30T09:47:43;7.40;85.80
42755;DHT22;28407;51.830;5.684;2023-01-30T09:54:24;7.50;85.60
42755;DHT22;28407;51.830;5.684;2023-01-30T09:56:27;7.50;85.50
42755;DHT22;28407;51.830;5.684;2023-01-30T10:00:41;7.50;85.30
42755;DHT22;28407;51.830;5.684;2023-01-30T10:05:04;7.60;85.20
42755;DHT22;28407;51.830;5.684;2023-01-30T10:07:19;7.60;85.20
42755;DHT22;28407;51.830;5.684;2023-01-30T10:09:40;7.60;85.00
42755;DHT22;28407;51.830;5.684;2023-01-30T10:11:53;7.60;85.00
42755;DHT22;28407;51.830;5.684;2023-01-30T10:16:34;7.70;84.90
42755;DHT22;28407;51.830;5.684;2023-01-30T10:21:07;7.70;84.80
42755;DHT22;28407;51.830;5.684;2023-01-30T10:25:56;7.70;84.60
42755;DHT22;28407;51.830;5.684;2023-01-30T10:28:31;7.80;84.50
42755;DHT22;28407;51.830;5.684;2023-01-30T10:30:33;7.80;84.50
42755;DHT22;28407;51.830;5.684;2023-01-30T10:32:41;7.80;84.40
42755;DHT22;28407;51.830;5.684;2023-01-30T10:34:52;7.80;84.30
42755;DHT22;28407;51.830;5.684;2023-01-30T10:37:05;7.80;84.10
42755;DHT22;28407;51.830;5.684;2023-01-30T10:41:35;7.90;84.10
42755;DHT22;28407;51.830;5.684;2023-01-30T10:43:58;7.90;84.10
42755;DHT22;28407;51.830;5.684;2023-01-30T10:46:18;7.90;83.90
42755;DHT22;28407;51.830;5.684;2023-01-30T10:50:40;8.00;83.90
42755;DHT22;28407;51.830;5.684;2023-01-30T10:53:05;8.00;83.90
42755;DHT22;28407;51.830;5.684;2023-01-30T11:00:00;8.00;83.70
42755;DHT22;28407;51.830;5.684;2023-01-30T11:02:18;8.00;83.50
42755;DHT22;28407;51.830;5.684;2023-01-30T11:06:33;8.10;83.50
42755;DHT22;28407;51.830;5.684;2023-01-30T11:08:34;8.10;83.50
42755;DHT22;28407;51.830;5.684;2023-01-30T11:10:35;8.10;83.40
42755;DHT22;28407;51.830;5.684;2023-01-30T11:12:36;8.20;83.30
42755;DHT22;28407;51.830;5.684;2023-01-30T11:14:59;8.20;83.30
42755;DHT22;28407;51.830;5.684;2023-01-30T11:16:59;8.20;83.10
42755;DHT22;28407;51.830;5.684;2023-01-30T11:19:04;8.20;83.00
42755;DHT22;28407;51.830;5.684;2023-01-30T11:21:07;8.20;83.00
42755;DHT22;28407;51.830;5.684;2023-01-30T11:25:47;8.30;82.80
42755;DHT22;28407;51.830;5.684;2023-01-30T11:28:02;8.30;82.80
42755;DHT22;28407;51.830;5.684;2023-01-30T11:30:15;8.30;82.80
42755;DHT22;28407;51.830;5.684;2023-01-30T11:32:27;8.30;82.80
42755;DHT22;28407;51.830;5.684;2023-01-30T11:34:28;8.40;82.80
42755;DHT22;28407;51.830;5.684;2023-01-30T11:36:32;8.40;82.70
42755;DHT22;28407;51.830;5.684;2023-01-30T11:38:35;8.40;82.70
42755;DHT22;28407;51.830;5.684;2023-01-30T11:40:38;8.40;82.50
42755;DHT22;28407;51.830;5.684;2023-01-30T11:42:46;8.50;82.50
42755;DHT22;28407;51.830;5.684;2023-01-30T11:44:55;8.50;82.40
42755;DHT22;28407;51.830;5.684;2023-01-30T11:47:03;8.50;82.30
42755;DHT22;28407;51.830;5.684;2023-01-30T11:49:11;8.50;82.30
42755;DHT22;28407;51.830;5.684;2023-01-30T11:51:14;8.50;82.20
42755;DHT22;28407;51.830;5.684;2023-01-30T11:53:29;8.50;82.20
42755;DHT22;28407;51.830;5.684;2023-01-30T11:55:34;8.50;82.20
42755;DHT22;28407;51.830;5.684;2023-01-30T11:57:42;8.50;82.00
42755;DHT22;28407;51.830;5.684;2023-01-30T12:01:45;8.60;81.90
42755;DHT22;28407;51.830;5.684;2023-01-30T12:03:52;8.60;81.80
42755;DHT22;28407;51.830;5.684;2023-01-30T12:05:54;8.60;81.80
42755;DHT22;28407;51.830;5.684;2023-01-30T12:08:12;8.60;81.70
42755;DHT22;28407;51.830;5.684;2023-01-30T12:10:31;8.60;81.60
42755;DHT22;28407;51.830;5.684;2023-01-30T12:12:51;8.70;81.50
42755;DHT22;28407;51.830;5.684;2023-01-30T12:14:53;8.60;81.30
42755;DHT22;28407;51.830;5.684;2023-01-30T12:19:39;8.70;81.20
42755;DHT22;28407;51.830;5.684;2023-01-30T12:21:54;8.70;81.00
42755;DHT22;28407;51.830;5.684;2023-01-30T12:24:05;8.70;80.90
42755;DHT22;28407;51.830;5.684;2023-01-30T12:26:20;8.80;80.90
42755;DHT22;28407;51.830;5.684;2023-01-30T12:29:16;8.80;80.90
42755;DHT22;28407;51.830;5.684;2023-01-30T12:31:15;8.80;80.60
42755;DHT22;28407;51.830;5.684;2023-01-30T12:33:18;8.90;80.40
42755;DHT22;28407;51.830;5.684;2023-01-30T12:35:22;8.90;80.30
42755;DHT22;28407;51.830;5.684;2023-01-30T12:39:56;8.90;80.10
42755;DHT22;28407;51.830;5.684;2023-01-30T12:42:18;8.90;80.00
42755;DHT22;28407;51.830;5.684;2023-01-30T12:54:26;8.90;79.80
42755;DHT22;28407;51.830;5.684;2023-01-30T13:06:52;9.00;80.30
42755;DHT22;28407;51.830;5.684;2023-01-30T13:11:36;8.90;79.50
42755;DHT22;28407;51.830;5.684;2023-01-30T13:18:25;9.00;79.40
42755;DHT22;28407;51.830;5.684;2023-01-30T13:23:10;9.10;79.30
42755;DHT22;28407;51.830;5.684;2023-01-30T13:27:44;9.10;79.10
42755;DHT22;28407;51.830;5.684;2023-01-30T13:29:47;9.10;79.00
42755;DHT22;28407;51.830;5.684;2023-01-30T13:31:54;9.10;79.00
42755;DHT22;28407;51.830;5.684;2023-01-30T13:38:18;9.10;78.90
42755;DHT22;28407;51.830;5.684;2023-01-30T13:40:24;9.10;78.90
42755;DHT22;28407;51.830;5.684;2023-01-30T13:44:57;9.10;78.90
42755;DHT22;28407;51.830;5.684;2023-01-30T13:47:10;9.00;78.90
42755;DHT22;28407;51.830;5.684;2023-01-30T13:49:21;9.00;79.00
42755;DHT22;28407;51.830;5.684;2023-01-30T13:53:52;9.00;79.00
42755;DHT22;28407;51.830;5.684;2023-01-30T13:55:57;9.00;78.90
42755;DHT22;28407;51.830;5.684;2023-01-30T14:00:26;9.00;78.90
42755;DHT22;28407;51.830;5.684;2023-01-30T14:02:28;9.00;78.90
42755;DHT22;28407;51.830;5.684;2023-01-30T14:06:38;9.00;78.90
42755;DHT22;28407;51.830;5.684;2023-01-30T14:10:46;8.90;78.90
42755;DHT22;28407;51.830;5.684;2023-01-30T14:12:53;9.00;78.90
42755;DHT22;28407;51.830;5.684;2023-01-30T14:17:15;8.90;78.90
42755;DHT22;28407;51.830;5.684;2023-01-30T14:19:19;8.90;78.90
42755;DHT22;28407;51.830;5.684;2023-01-30T14:21:22;8.90;78.90
42755;DHT22;28407;51.830;5.684;2023-01-30T14:23:33;8.90;78.90
42755;DHT22;28407;51.830;5.684;2023-01-30T14:25:43;8.90;78.90
42755;DHT22;28407;51.830;5.684;2023-01-30T14:27:44;8.90;78.80
42755;DHT22;28407;51.830;5.684;2023-01-30T14:31:48;9.00;78.80
42755;DHT22;28407;51.830;5.684;2023-01-30T14:33:50;9.00;78.60
42755;DHT22;28407;51.830;5.684;2023-01-30T14:38:20;9.00;78.70
42755;DHT22;28407;51.830;5.684;2023-01-30T14:42:26;9.00;78.60
42755;DHT22;28407;51.830;5.684;2023-01-30T14:44:56;9.00;78.60
42755;DHT22;28407;51.830;5.684;2023-01-30T14:46:57;9.00;78.50
42755;DHT22;28407;51.830;5.684;2023-01-30T14:49:17;9.00;78.50
42755;DHT22;28407;51.830;5.684;2023-01-30T14:53:51;9.00;78.50
42755;DHT22;28407;51.830;5.684;2023-01-30T14:56:00;9.00;78.40
42755;DHT22;28407;51.830;5.684;2023-01-30T14:58:03;9.00;78.50
42755;DHT22;28407;51.830;5.684;2023-01-30T15:00:06;9.00;78.50
42755;DHT22;28407;51.830;5.684;2023-01-30T15:04:15;9.00;78.50
42755;DHT22;28407;51.830;5.684;2023-01-30T15:06:17;9.00;78.60
42755;DHT22;28407;51.830;5.684;2023-01-30T15:08:21;9.00;78.60
42755;DHT22;28407;51.830;5.684;2023-01-30T15:19:48;8.90;78.70
42755;DHT22;28407;51.830;5.684;2023-01-30T15:28:45;8.80;78.80
42755;DHT22;28407;51.830;5.684;2023-01-30T15:33:15;8.80;79.00